Time;durP1;ratioP1;P1;durP2;ratioP2;P2;SDS_P1;SDS_P2;PMS_P1;PMS_P2;Temp;Humidity;BMP_temperature;BMP_pressure;BME280_temperature;BME280_humidity;BME280_pressure;Samples;Min_cycle;Max_cycle;Signal;HPM_P1;HPM_P2
2021/05/20 00:01:53;;;;;;;5.88;4.10;;;6.50;99.90;;;;;;5032977;28;20129;-65
2021/05/20 00:04:22;;;;;;;6.13;4.72;;;6.50;99.90;;;;;;5021414;28;20152;-65
2021/05/20 00:06:48;;;;;;;6.88;5.40;;;6.50;99.90;;;;;;5031781;28;20098;-65
2021/05/20 00:09:14;;;;;;;6.00;5.40;;;6.50;99.90;;;;;;5030242;28;20049;-65
2021/05/20 00:11:39;;;;;;;4.80;4.40;;;6.50;99.90;;;;;;5039350;28;20037;-65
2021/05/20 00:14:05;;;;;;;5.32;4.80;;;6.40;99.90;;;;;;5022594;28;20044;-65
2021/05/20 00:16:31;;;;;;;6.60;5.90;;;6.40;99.90;;;;;;5029193;28;20369;-65
2021/05/20 00:18:57;;;;;;;6.53;5.93;;;6.40;99.90;;;;;;5031957;28;20139;-65
2021/05/20 00:21:22;;;;;;;6.90;6.20;;;6.40;99.90;;;;;;5028217;28;20428;-65
2021/05/20 00:23:48;;;;;;;6.05;5.45;;;6.40;99.90;;;;;;5023506;28;20037;-65
2021/05/20 00:26:14;;;;;;;6.75;5.72;;;6.30;99.90;;;;;;5032139;28;20042;-65
2021/05/20 00:28:40;;;;;;;8.20;7.00;;;6.30;99.90;;;;;;5027352;28;20111;-65
2021/05/20 00:31:06;;;;;;;7.45;6.32;;;6.30;99.90;;;;;;5025751;28;20057;-65
2021/05/20 00:33:32;;;;;;;6.50;5.80;;;6.20;99.90;;;;;;5024541;28;20038;-66
2021/05/20 00:35:57;;;;;;;6.80;6.20;;;6.20;99.90;;;;;;5036974;28;20556;-65
2021/05/20 00:38:23;;;;;;;7.78;6.93;;;6.20;99.90;;;;;;5028608;28;20046;-65
2021/05/20 00:40:49;;;;;;;6.93;6.32;;;6.20;99.90;;;;;;5026823;28;20049;-65
2021/05/20 00:43:15;;;;;;;6.70;6.03;;;6.20;99.90;;;;;;5034611;28;20411;-65
2021/05/20 00:45:41;;;;;;;7.82;6.25;;;6.20;99.90;;;;;;5022820;28;20057;-65
2021/05/20 00:48:07;;;;;;;7.07;6.38;;;6.20;99.90;;;;;;5030854;28;20727;-65
2021/05/20 00:50:33;;;;;;;6.80;6.00;;;6.10;99.90;;;;;;5019655;28;20041;-65
2021/05/20 00:52:59;;;;;;;7.22;6.00;;;6.10;99.90;;;;;;5030028;28;20056;-65
2021/05/20 00:55:31;;;;;;;7.20;6.50;;;6.00;99.90;;;;;;5022373;28;20052;-65
2021/05/20 00:58:00;;;;;;;10.70;8.48;;;6.00;99.90;;;;;;5028444;28;20530;-65
2021/05/20 01:00:26;;;;;;;11.93;9.73;;;6.00;99.90;;;;;;5026872;28;20044;-65
2021/05/20 01:02:53;;;;;;;10.48;9.35;;;6.00;99.90;;;;;;5027549;28;20068;-65
2021/05/20 01:05:19;;;;;;;10.43;9.32;;;6.10;99.90;;;;;;5026374;28;20033;-65
2021/05/20 01:07:45;;;;;;;9.93;8.65;;;6.00;99.90;;;;;;5025331;28;20037;-65
2021/05/20 01:10:11;;;;;;;11.73;10.07;;;6.00;99.90;;;;;;5025484;28;20091;-65
2021/05/20 01:12:37;;;;;;;13.75;11.68;;;6.00;99.90;;;;;;5029981;28;20052;-65
2021/05/20 01:15:05;;;;;;;14.00;11.55;;;6.00;99.90;;;;;;5021564;28;20045;-65
2021/05/20 01:17:31;;;;;;;12.88;11.25;;;6.00;99.90;;;;;;5028535;28;20312;-65
2021/05/20 01:19:57;;;;;;;12.25;10.95;;;6.00;99.90;;;;;;5034573;28;20087;-65
2021/05/20 01:22:23;;;;;;;11.25;10.15;;;6.00;99.90;;;;;;5022116;28;20384;-65
2021/05/20 01:24:49;;;;;;;10.32;9.32;;;6.00;99.90;;;;;;5025028;28;20052;-65
2021/05/20 01:27:15;;;;;;;9.25;8.25;;;6.00;99.90;;;;;;5028980;28;20547;-65
2021/05/20 01:29:44;;;;;;;10.18;8.32;;;6.00;99.90;;;;;;5033222;28;20036;-65
2021/05/20 01:32:11;;;;;;;10.35;9.20;;;5.90;99.90;;;;;;5024806;28;20094;-65
2021/05/20 01:34:37;;;;;;;10.38;9.13;;;5.90;99.90;;;;;;5028465;28;20034;-65
2021/05/20 01:37:05;;;;;;;13.57;12.18;;;5.90;99.90;;;;;;5022758;28;20045;-66
2021/05/20 01:39:31;;;;;;;14.32;12.00;;;5.80;99.90;;;;;;5027755;28;20060;-66
2021/05/20 01:41:56;;;;;;;13.00;11.63;;;5.80;99.90;;;;;;5023747;28;20040;-66
2021/05/20 01:44:23;;;;;;;9.50;8.63;;;5.80;99.90;;;;;;5028568;28;20040;-66
2021/05/20 01:46:49;;;;;;;12.43;10.25;;;5.80;99.90;;;;;;5027431;28;20045;-66
2021/05/20 01:49:15;;;;;;;11.52;10.32;;;5.70;99.90;;;;;;5025101;28;21350;-66
2021/05/20 01:51:42;;;;;;;11.23;9.05;;;5.80;99.90;;;;;;5023406;28;20107;-66
2021/05/20 01:54:09;;;;;;;11.07;8.55;;;5.80;99.90;;;;;;5031530;28;20573;-66
2021/05/20 01:56:36;;;;;;;11.20;10.00;;;5.70;99.90;;;;;;5028603;28;20045;-66
2021/05/20 01:59:06;;;;;;;10.07;9.13;;;5.70;99.90;;;;;;5020529;28;20568;-66
2021/05/20 02:01:35;;;;;;;12.68;11.43;;;5.70;99.90;;;;;;5029017;28;20041;-66
2021/05/20 02:04:02;;;;;;;15.85;12.73;;;5.70;99.90;;;;;;5026925;28;20060;-66
2021/05/20 02:06:29;;;;;;;12.63;11.30;;;5.70;99.90;;;;;;5027104;28;20033;-66
2021/05/20 02:08:55;;;;;;;13.27;10.75;;;5.70;99.90;;;;;;5023393;28;20464;-66
2021/05/20 02:11:21;;;;;;;10.68;9.30;;;5.60;99.90;;;;;;5038102;28;20354;-66
2021/05/20 02:13:47;;;;;;;10.38;9.38;;;5.60;99.90;;;;;;5028891;28;20139;-66
2021/05/20 02:16:13;;;;;;;11.77;9.57;;;5.60;99.90;;;;;;5027613;28;20450;-66
2021/05/20 02:18:39;;;;;;;10.02;9.13;;;5.50;99.90;;;;;;5026665;28;20037;-66
2021/05/20 02:21:05;;;;;;;12.43;11.18;;;5.50;99.90;;;;;;5033892;28;20057;-66
2021/05/20 02:23:31;;;;;;;12.75;9.57;;;5.50;99.90;;;;;;5027384;28;20043;-66
2021/05/20 02:25:58;;;;;;;10.27;8.63;;;5.50;99.90;;;;;;5032260;28;20460;-66
2021/05/20 02:28:24;;;;;;;8.77;7.90;;;5.40;99.90;;;;;;5034357;28;20049;-66
2021/05/20 02:30:50;;;;;;;9.85;8.70;;;5.40;99.90;;;;;;5031712;28;20420;-66
2021/05/20 02:33:16;;;;;;;14.55;10.25;;;5.40;99.90;;;;;;5029168;28;20067;-66
2021/05/20 02:35:41;;;;;;;9.20;8.25;;;5.30;99.90;;;;;;5036931;28;20115;-66
2021/05/20 02:38:07;;;;;;;9.02;7.65;;;5.40;99.90;;;;;;5035427;28;20104;-66
2021/05/20 02:40:34;;;;;;;7.90;7.13;;;5.40;99.90;;;;;;5029565;28;20037;-66
2021/05/20 02:43:01;;;;;;;8.73;7.75;;;5.40;99.90;;;;;;5032235;28;20037;-66
2021/05/20 02:45:29;;;;;;;11.95;9.88;;;5.40;99.90;;;;;;5030575;28;20030;-66
2021/05/20 02:47:54;;;;;;;9.38;7.93;;;5.40;99.90;;;;;;5032034;28;20029;-66
2021/05/20 02:50:22;;;;;;;9.82;8.80;;;5.40;99.90;;;;;;5029452;28;20041;-66
2021/05/20 02:52:48;;;;;;;9.25;8.35;;;5.40;99.90;;;;;;5035964;28;20049;-66
2021/05/20 02:55:16;;;;;;;11.43;9.98;;;5.50;99.90;;;;;;5025082;28;20039;-66
2021/05/20 02:57:45;;;;;;;8.75;7.55;;;5.50;99.90;;;;;;5032565;28;20535;-66
2021/05/20 03:00:12;;;;;;;9.10;8.20;;;5.50;99.90;;;;;;5023172;28;20469;-66
2021/05/20 03:02:39;;;;;;;8.35;7.55;;;5.50;99.90;;;;;;5034462;28;20057;-66
2021/05/20 03:05:07;;;;;;;11.35;10.15;;;5.50;99.90;;;;;;5026379;28;20045;-66
2021/05/20 03:07:34;;;;;;;10.60;9.25;;;5.50;99.90;;;;;;5033206;28;20040;-66
2021/05/20 03:10:01;;;;;;;8.82;7.93;;;5.50;99.90;;;;;;5026956;28;20041;-66
2021/05/20 03:12:27;;;;;;;8.68;7.78;;;5.50;99.90;;;;;;5037023;28;20533;-66
2021/05/20 03:14:53;;;;;;;8.25;7.45;;;5.40;99.90;;;;;;5030456;28;20037;-66
2021/05/20 03:17:19;;;;;;;13.90;10.68;;;5.40;99.90;;;;;;5028965;28;20253;-66
2021/05/20 03:19:44;;;;;;;12.90;11.15;;;5.50;99.90;;;;;;5034491;28;20053;-66
2021/05/20 03:22:10;;;;;;;9.88;8.82;;;5.40;99.90;;;;;;5028494;28;20405;-66
2021/05/20 03:24:36;;;;;;;9.07;8.18;;;5.40;99.90;;;;;;5030501;28;20038;-66
2021/05/20 03:27:02;;;;;;;9.93;7.90;;;5.40;99.90;;;;;;5019741;28;20553;-66
2021/05/20 03:29:28;;;;;;;8.88;7.50;;;5.40;99.90;;;;;;5032673;28;20048;-66
2021/05/20 03:31:54;;;;;;;10.55;8.85;;;5.30;99.90;;;;;;5033215;28;20131;-66
2021/05/20 03:34:20;;;;;;;9.50;8.48;;;5.30;99.90;;;;;;5029282;28;20045;-66
2021/05/20 03:36:46;;;;;;;13.15;10.00;;;5.30;99.90;;;;;;5021848;28;20034;-66
2021/05/20 03:39:11;;;;;;;13.65;9.05;;;5.30;99.90;;;;;;5042981;28;20125;-66
2021/05/20 03:41:37;;;;;;;9.00;8.10;;;5.30;99.90;;;;;;5024691;28;20088;-66
2021/05/20 03:44:03;;;;;;;13.52;9.35;;;5.20;99.90;;;;;;5032240;28;20087;-66
2021/05/20 03:46:29;;;;;;;8.98;8.07;;;5.30;99.90;;;;;;5027309;28;20045;-66
2021/05/20 03:48:55;;;;;;;13.65;11.38;;;5.20;99.90;;;;;;5037100;28;20064;-66
2021/05/20 03:51:21;;;;;;;11.18;8.70;;;5.20;99.90;;;;;;5021721;28;20100;-66
2021/05/20 03:53:47;;;;;;;9.38;8.00;;;5.20;99.90;;;;;;5031107;28;20049;-66
2021/05/20 03:56:13;;;;;;;11.20;9.80;;;5.30;99.90;;;;;;5024416;28;20040;-66
2021/05/20 03:58:39;;;;;;;9.98;8.98;;;5.30;99.90;;;;;;5028879;28;20120;-66
2021/05/20 04:01:05;;;;;;;12.73;11.23;;;5.40;99.90;;;;;;5035414;28;20065;-66
2021/05/20 04:03:32;;;;;;;14.98;11.15;;;5.40;99.90;;;;;;5025751;28;20076;-66
2021/05/20 04:06:00;;;;;;;14.63;11.43;;;5.50;99.90;;;;;;5032837;28;20463;-66
2021/05/20 04:08:27;;;;;;;15.13;11.70;;;5.50;99.90;;;;;;5017142;28;20041;-66
2021/05/20 04:10:53;;;;;;;13.43;11.30;;;5.60;99.90;;;;;;5031648;28;20060;-66
2021/05/20 04:13:43;;;;;;;13.30;11.95;;;5.60;99.90;;;;;;5025329;28;20053;-66
2021/05/20 04:16:14;;;;;;;20.48;14.43;;;5.70;99.90;;;;;;5020553;28;20465;-66
2021/05/20 04:18:41;;;;;;;15.15;12.23;;;5.70;99.90;;;;;;5027474;28;20133;-66
2021/05/20 04:21:07;;;;;;;20.75;16.77;;;5.80;99.90;;;;;;5027577;28;21380;-66
2021/05/20 04:23:34;;;;;;;16.85;13.55;;;5.80;99.90;;;;;;5026543;28;20424;-66
2021/05/20 04:25:59;;;;;;;20.85;15.10;;;5.90;99.90;;;;;;5030803;28;20115;-66
2021/05/20 04:28:25;;;;;;;39.95;26.10;;;6.00;99.90;;;;;;5021551;28;20576;-66
2021/05/20 04:30:51;;;;;;;29.00;19.75;;;6.00;99.90;;;;;;5034644;28;20085;-66
2021/05/20 04:33:17;;;;;;;27.23;19.70;;;6.10;99.90;;;;;;5025570;28;20036;-66
2021/05/20 04:35:43;;;;;;;28.08;19.23;;;6.20;99.90;;;;;;5030777;28;20053;-66
2021/05/20 04:38:09;;;;;;;53.40;26.48;;;6.20;99.90;;;;;;5027767;28;20366;-66
2021/05/20 04:40:38;;;;;;;64.85;27.77;;;6.30;99.90;;;;;;5033231;28;20040;-66
2021/05/20 04:43:04;;;;;;;58.33;27.55;;;6.30;99.90;;;;;;5029124;28;20030;-66
2021/05/20 04:45:30;;;;;;;63.65;28.95;;;6.40;99.90;;;;;;5025954;28;20429;-66
2021/05/20 04:47:56;;;;;;;56.25;26.67;;;6.50;99.90;;;;;;5031840;28;20065;-66
2021/05/20 04:50:22;;;;;;;68.68;28.27;;;6.60;99.90;;;;;;5025049;28;20037;-66
2021/05/20 04:52:48;;;;;;;46.95;25.60;;;6.60;99.90;;;;;;5032826;28;20139;-66
2021/05/20 04:55:15;;;;;;;83.82;30.20;;;6.70;99.90;;;;;;5023563;28;20041;-66
2021/05/20 04:57:41;;;;;;;44.95;25.98;;;6.80;99.90;;;;;;5026342;28;20120;-66
2021/05/20 05:00:10;;;;;;;38.97;24.02;;;6.90;99.90;;;;;;5023124;28;20064;-66
2021/05/20 05:02:35;;;;;;;44.00;26.77;;;7.00;99.90;;;;;;5023735;28;20080;-66
2021/05/20 05:05:03;;;;;;;36.25;23.77;;;7.10;99.90;;;;;;5024582;28;20041;-66
2021/05/20 05:07:29;;;;;;;31.42;22.77;;;7.20;99.90;;;;;;5030869;28;20047;-67
2021/05/20 05:09:55;;;;;;;29.77;25.02;;;7.20;99.90;;;;;;5028229;28;20045;-66
2021/05/20 05:12:20;;;;;;;26.10;23.00;;;7.30;99.90;;;;;;5029995;28;20095;-66
2021/05/20 05:14:47;;;;;;;31.42;22.60;;;7.40;99.90;;;;;;5026610;28;20477;-66
2021/05/20 05:17:13;;;;;;;36.67;23.42;;;7.50;99.90;;;;;;5027897;28;20083;-67
2021/05/20 05:19:39;;;;;;;37.22;26.00;;;7.60;99.90;;;;;;5016448;28;20049;-67
2021/05/20 05:22:05;;;;;;;61.40;22.50;;;7.60;99.90;;;;;;5026400;28;20444;-67
2021/05/20 05:24:31;;;;;;;40.00;25.52;;;7.70;99.90;;;;;;5029712;28;20053;-67
2021/05/20 05:26:58;;;;;;;41.80;27.50;;;7.80;99.90;;;;;;5024582;28;20034;-67
2021/05/20 05:29:25;;;;;;;43.40;26.70;;;8.00;99.90;;;;;;5035690;28;20045;-67
2021/05/20 05:31:51;;;;;;;115.95;35.88;;;8.00;99.90;;;;;;5025341;28;20061;-67
2021/05/20 05:34:17;;;;;;;58.88;30.02;;;8.20;99.90;;;;;;5035320;28;20075;-67
2021/05/20 05:36:43;;;;;;;59.45;33.38;;;8.30;99.90;;;;;;5024532;28;20030;-66
2021/05/20 05:39:09;;;;;;;65.80;34.13;;;8.40;99.90;;;;;;5031240;28;20053;-67
2021/05/20 05:41:35;;;;;;;54.25;33.20;;;8.50;99.90;;;;;;5028144;28;20037;-66
2021/05/20 05:44:01;;;;;;;73.25;34.55;;;8.60;99.90;;;;;;5035246;28;20438;-66
2021/05/20 05:46:27;;;;;;;50.45;33.67;;;8.70;99.90;;;;;;5022240;28;20033;-66
2021/05/20 05:48:54;;;;;;;45.03;31.77;;;8.90;99.90;;;;;;5028772;28;20041;-67
2021/05/20 05:51:22;;;;;;;64.60;37.78;;;9.00;99.90;;;;;;5023309;28;20037;-67
2021/05/20 05:53:48;;;;;;;46.95;32.13;;;9.10;99.90;;;;;;5028438;28;20045;-66
2021/05/20 05:56:14;;;;;;;39.33;30.55;;;9.30;99.90;;;;;;5023564;28;20166;-66
2021/05/20 05:58:39;;;;;;;45.35;32.17;;;9.40;99.90;;;;;;5028428;28;20406;-66
2021/05/20 06:01:05;;;;;;;42.13;32.38;;;9.50;99.90;;;;;;5028493;28;20464;-66
2021/05/20 06:03:33;;;;;;;40.67;32.10;;;9.60;99.90;;;;;;5020713;28;20096;-66
2021/05/20 06:06:00;;;;;;;36.80;31.00;;;9.80;99.90;;;;;;5032892;28;20060;-66
2021/05/20 06:08:26;;;;;;;44.72;33.30;;;9.90;99.90;;;;;;5028045;28;20095;-66
2021/05/20 06:10:52;;;;;;;36.20;29.55;;;10.10;99.90;;;;;;5027554;28;20412;-67
2021/05/20 06:13:18;;;;;;;33.40;29.60;;;10.30;99.90;;;;;;5020585;28;20088;-66
2021/05/20 06:15:44;;;;;;;34.40;30.65;;;10.40;99.90;;;;;;5025202;28;20425;-66
2021/05/20 06:18:10;;;;;;;34.80;30.63;;;10.50;99.90;;;;;;5024385;28;20048;-66
2021/05/20 06:20:36;;;;;;;34.20;30.33;;;10.60;99.90;;;;;;5028957;28;20144;-66
2021/05/20 06:23:02;;;;;;;33.22;28.63;;;10.80;99.90;;;;;;5029107;28;20032;-67
2021/05/20 06:25:28;;;;;;;31.13;27.80;;;10.90;99.90;;;;;;5031604;28;20045;-66
2021/05/20 06:27:54;;;;;;;33.60;30.00;;;10.90;99.90;;;;;;5022697;28;20042;-66
2021/05/20 06:30:20;;;;;;;32.00;28.55;;;11.00;99.90;;;;;;5035165;28;20045;-67
2021/05/20 06:32:46;;;;;;;33.10;29.75;;;11.10;99.90;;;;;;5027638;28;20037;-67
2021/05/20 06:35:12;;;;;;;33.88;30.42;;;11.20;99.90;;;;;;5037558;28;20049;-66
2021/05/20 06:37:38;;;;;;;30.70;27.50;;;11.40;99.90;;;;;;5022229;28;20124;-66
2021/05/20 06:40:07;;;;;;;31.48;28.27;;;11.50;99.90;;;;;;5031501;28;20124;-66
2021/05/20 06:42:33;;;;;;;30.67;27.58;;;11.70;99.90;;;;;;5030152;28;20044;-66
2021/05/20 06:44:59;;;;;;;29.60;26.88;;;11.80;99.90;;;;;;5022962;28;20563;-66
2021/05/20 06:47:24;;;;;;;29.58;26.58;;;12.00;99.90;;;;;;5033997;28;20049;-66
2021/05/20 06:49:51;;;;;;;29.50;26.55;;;12.00;99.90;;;;;;5026968;28;20048;-66
2021/05/20 06:52:17;;;;;;;26.92;24.45;;;12.10;99.90;;;;;;5029319;28;20131;-66
2021/05/20 06:54:43;;;;;;;25.02;22.63;;;12.20;99.90;;;;;;5024092;28;21157;-66
2021/05/20 06:57:21;;;;;;;26.35;23.80;;;12.30;99.90;;;;;;5031000;28;20056;-66
2021/05/20 07:02:43;;;;;;;;;;;12.30;99.90;;;;;;5021345;28;20049;-66
2021/05/20 07:05:09;;;;;;;20.98;19.00;;;12.30;99.90;;;;;;5029929;28;20376;-67
2021/05/20 07:07:38;;;;;;;21.25;18.98;;;12.30;99.90;;;;;;5025641;28;20049;-67
2021/05/20 07:10:05;;;;;;;21.25;19.25;;;12.40;99.90;;;;;;5027469;28;20080;-67
2021/05/20 07:12:31;;;;;;;20.10;18.10;;;12.50;99.90;;;;;;5023788;28;20096;-67
2021/05/20 07:15:00;;;;;;;18.08;16.17;;;12.60;99.90;;;;;;5031950;28;20041;-67
2021/05/20 07:17:26;;;;;;;17.05;15.50;;;12.70;99.90;;;;;;5036721;28;20493;-67
2021/05/20 07:19:52;;;;;;;19.42;16.27;;;12.70;99.90;;;;;;5026358;28;20067;-67
2021/05/20 07:22:18;;;;;;;17.10;15.48;;;12.60;99.90;;;;;;5030504;28;20040;-67
2021/05/20 07:24:44;;;;;;;19.55;17.85;;;12.60;99.90;;;;;;5025191;28;20122;-66
2021/05/20 07:27:10;;;;;;;19.17;17.38;;;12.60;99.90;;;;;;5029048;28;20331;-67
2021/05/20 07:29:37;;;;;;;21.17;19.27;;;12.60;99.90;;;;;;5021963;28;20087;-66
2021/05/20 07:32:03;;;;;;;20.42;18.42;;;12.70;99.90;;;;;;5038610;28;20092;-67
2021/05/20 07:34:32;;;;;;;22.10;19.98;;;12.80;99.90;;;;;;5034053;28;20053;-67
2021/05/20 07:36:59;;;;;;;23.25;21.00;;;12.80;99.90;;;;;;5025263;28;20070;-67
2021/05/20 07:39:25;;;;;;;22.30;20.15;;;12.80;99.90;;;;;;5038997;28;20029;-67
2021/05/20 07:41:50;;;;;;;18.67;16.88;;;12.90;99.90;;;;;;5022665;28;20374;-69
2021/05/20 07:44:16;;;;;;;18.63;16.42;;;13.10;99.90;;;;;;5029176;28;20045;-68
2021/05/20 07:46:42;;;;;;;16.67;14.20;;;13.40;99.90;;;;;;5022496;28;20034;-69
2021/05/20 07:49:08;;;;;;;13.68;12.23;;;13.60;99.90;;;;;;5032457;28;20040;-68
2021/05/20 07:51:34;;;;;;;11.32;10.30;;;13.80;99.90;;;;;;5022797;28;20033;-69
2021/05/20 07:54:00;;;;;;;10.63;9.57;;;13.90;99.90;;;;;;5032136;28;20029;-68
2021/05/20 07:56:26;;;;;;;10.40;9.40;;;14.10;99.90;;;;;;5014208;28;20037;-69
2021/05/20 07:58:54;;;;;;;10.63;9.60;;;14.30;99.90;;;;;;5038485;28;20049;-69
2021/05/20 08:01:21;;;;;;;10.10;8.80;;;14.30;99.90;;;;;;5023590;28;20452;-69
2021/05/20 08:03:58;;;;;;;10.68;9.68;;;14.40;99.90;;;;;;5027968;28;20407;-69
2021/05/20 08:06:53;;;;;;;7.68;6.80;;;14.30;99.90;;;;;;5024834;28;20045;-67
2021/05/20 08:11:42;;;;;;;7.70;6.57;;;13.90;99.90;;;;;;5026359;28;20048;-67
2021/05/20 08:14:08;;;;;;;7.95;6.53;;;13.80;99.90;;;;;;5038151;28;20488;-67
2021/05/20 08:16:34;;;;;;;8.13;7.10;;;13.70;99.90;;;;;;5024268;28;20047;-67
2021/05/20 08:19:00;;;;;;;8.27;7.43;;;13.80;99.90;;;;;;5031944;28;20044;-67
2021/05/20 08:21:39;;;;;;;8.43;7.05;;;13.80;99.90;;;;;;5025121;28;20041;-67
2021/05/20 08:24:05;;;;;;;8.30;6.57;;;13.70;99.40;;;;;;5034381;28;20037;-67
2021/05/20 08:26:31;;;;;;;7.93;6.80;;;13.70;99.90;;;;;;5032194;28;20100;-67
2021/05/20 08:28:57;;;;;;;6.70;6.10;;;13.90;99.90;;;;;;5026668;28;20163;-67
2021/05/20 08:31:24;;;;;;;6.97;6.15;;;14.40;99.90;;;;;;5026328;28;20033;-67
2021/05/20 08:33:50;;;;;;;7.53;5.55;;;14.80;99.90;;;;;;5023739;28;20037;-67
2021/05/20 08:36:15;;;;;;;7.10;5.47;;;15.00;99.90;;;;;;5030446;28;20384;-67
2021/05/20 08:38:41;;;;;;;6.68;5.32;;;15.00;99.90;;;;;;5026847;28;20545;-67
2021/05/20 08:41:07;;;;;;;7.00;5.75;;;15.30;99.90;;;;;;5036690;28;20033;-67
2021/05/20 08:43:33;;;;;;;5.72;4.90;;;16.00;99.90;;;;;;5029062;28;20120;-67
2021/05/20 08:45:59;;;;;;;5.50;3.40;;;16.30;98.50;;;;;;5035160;28;20484;-67
2021/05/20 08:48:25;;;;;;;5.18;3.55;;;16.50;96.40;;;;;;5032069;28;20037;-67
2021/05/20 08:50:51;;;;;;;6.45;4.32;;;16.70;96.60;;;;;;5029214;28;20055;-67
2021/05/20 08:53:17;;;;;;;5.65;3.95;;;17.00;97.70;;;;;;5025344;28;20471;-67
2021/05/20 08:55:42;;;;;;;4.55;3.85;;;17.30;98.10;;;;;;5033385;28;20408;-67
2021/05/20 08:58:10;;;;;;;6.10;3.30;;;17.60;96.80;;;;;;5022419;28;20453;-67
2021/05/20 09:00:37;;;;;;;4.22;3.50;;;17.90;95.70;;;;;;5022873;28;20601;-67
2021/05/20 09:03:08;;;;;;;5.97;3.42;;;18.20;96.10;;;;;;5029734;28;20477;-67
2021/05/20 09:05:35;;;;;;;4.30;3.67;;;18.40;95.00;;;;;;5029970;28;20507;-67
2021/05/20 09:08:05;;;;;;;3.90;3.50;;;18.20;94.70;;;;;;5029158;28;20046;-68
2021/05/20 09:10:34;;;;;;;3.83;3.30;;;18.00;94.00;;;;;;5022151;28;20507;-67
2021/05/20 09:13:33;;;;;;;4.85;3.17;;;17.90;93.70;;;;;;5028211;28;20116;-67
2021/05/20 09:16:11;;;;;;;5.35;2.88;;;17.70;93.40;;;;;;5022064;28;20045;-67
2021/05/20 09:18:40;;;;;;;5.07;2.85;;;17.30;89.80;;;;;;5021873;28;20040;-67
2021/05/20 09:21:06;;;;;;;3.15;2.90;;;16.90;92.10;;;;;;5015788;28;20045;-67
2021/05/20 09:23:32;;;;;;;3.55;2.58;;;16.60;93.20;;;;;;5030843;28;20083;-67
2021/05/20 09:26:11;;;;;;;3.42;2.40;;;16.40;92.50;;;;;;5024920;28;20511;-67
2021/05/20 09:28:43;;;;;;;3.67;2.30;;;16.20;87.20;;;;;;5035898;28;20491;-67
2021/05/20 09:31:15;;;;;;;6.28;2.50;;;16.10;94.10;;;;;;5027150;28;20102;-67
2021/05/20 09:33:54;;;;;;;2.92;1.73;;;16.50;95.80;;;;;;5032362;28;20155;-66
2021/05/20 09:36:24;;;;;;;3.28;1.67;;;17.00;94.90;;;;;;5027167;28;20209;-66
2021/05/20 09:39:11;;;;;;;2.83;2.00;;;17.50;96.90;;;;;;5033194;28;20048;-67
2021/05/20 09:41:37;;;;;;;5.20;1.90;;;17.60;93.30;;;;;;5020038;28;20401;-68
2021/05/20 09:44:30;;;;;;;4.00;1.83;;;17.40;92.90;;;;;;5033210;28;20038;-66
2021/05/20 09:46:57;;;;;;;1.58;0.95;;;17.00;80.60;;;;;;5034793;28;20033;-67
2021/05/20 09:49:26;;;;;;;2.22;1.02;;;16.90;92.70;;;;;;5030240;28;20276;-67
2021/05/20 09:52:30;;;;;;;2.03;0.95;;;16.90;91.70;;;;;;5024785;28;20065;-67
2021/05/20 09:54:56;;;;;;;4.63;1.40;;;17.10;79.10;;;;;;4948125;29;20069;-67
2021/05/20 09:57:26;;;;;;;3.25;1.17;;;17.20;94.30;;;;;;4927840;29;20145;-67
2021/05/20 10:00:07;;;;;;;3.38;1.50;;;17.50;91.90;;;;;;4990470;28;20056;-67
2021/05/20 10:02:33;;;;;;;3.05;1.50;;;17.60;90.10;;;;;;5026602;28;20037;-67
2021/05/20 10:05:17;;;;;;;3.25;1.38;;;17.50;91.90;;;;;;5021729;28;20034;-67
2021/05/20 10:07:43;;;;;;;;;;;17.40;77.10;;;;;;5024765;28;20415;-67
2021/05/20 10:10:09;;;;;;;2.13;1.60;;;17.10;78.10;;;;;;5037104;28;19917;-67
2021/05/20 10:12:39;;;;;;;3.78;1.65;;;16.90;92.10;;;;;;5026033;28;20056;-67
2021/05/20 10:15:07;;;;;;;2.80;2.03;;;16.80;91.20;;;;;;5034891;28;20092;-67
2021/05/20 10:17:34;;;;;;;4.78;1.35;;;17.20;92.30;;;;;;5027548;28;20041;-67
2021/05/20 10:20:02;;;;;;;3.75;1.70;;;17.50;92.40;;;;;;5028887;28;20050;-67
2021/05/20 10:22:28;;;;;;;2.35;1.58;;;17.60;91.40;;;;;;5023547;28;20570;-67
2021/05/20 10:24:56;;;;;;;3.05;1.67;;;17.50;90.30;;;;;;5032278;28;20149;-67
2021/05/20 10:27:22;;;;;;;2.20;1.45;;;17.70;90.50;;;;;;5023154;28;20045;-67
2021/05/20 10:29:50;;;;;;;2.47;1.80;;;18.10;91.20;;;;;;5033054;28;20080;-67
2021/05/20 10:32:17;;;;;;;7.18;2.50;;;18.70;92.60;;;;;;5013302;28;20041;-67
2021/05/20 10:35:06;;;;;;;4.78;2.75;;;19.00;90.80;;;;;;5028762;28;20042;-67
2021/05/20 10:37:39;;;;;;;4.28;2.33;;;19.00;70.20;;;;;;5019860;28;20041;-67
2021/05/20 10:40:33;;;;;;;3.13;2.65;;;18.70;84.10;;;;;;5034805;28;20052;-67
2021/05/20 10:43:15;;;;;;;5.10;4.10;;;18.90;90.30;;;;;;5023243;28;20048;-68
2021/05/20 10:46:03;;;;;;;5.45;4.05;;;19.50;92.00;;;;;;5031571;28;20484;-68
2021/05/20 10:48:29;;;;;;;6.30;3.00;;;19.90;71.90;;;;;;5023004;28;20078;-67
2021/05/20 10:51:01;;;;;;;4.57;2.83;;;19.90;87.50;;;;;;5035316;28;20041;-68
2021/05/20 10:53:49;;;;;;;4.65;3.03;;;20.10;81.10;;;;;;5023118;28;20072;-68
2021/05/20 10:56:14;;;;;;;7.05;6.35;;;20.50;79.90;;;;;;5021939;28;20068;-68
2021/05/20 10:58:46;;;;;;;6.25;5.57;;;20.90;87.30;;;;;;5028029;28;20076;-68
2021/05/20 11:01:37;;;;;;;7.20;5.60;;;21.30;83.60;;;;;;5038818;28;20049;-68
2021/05/20 11:04:07;;;;;;;7.43;6.50;;;21.70;69.20;;;;;;5017048;28;20056;-68
2021/05/20 11:06:39;;;;;;;9.05;8.25;;;21.70;78.30;;;;;;5030906;28;20116;-67
2021/05/20 11:09:06;;;;;;;9.80;8.90;;;21.30;70.70;;;;;;5029715;28;20508;-67
2021/05/20 11:11:32;;;;;;;10.20;8.52;;;20.80;73.40;;;;;;5037234;28;20057;-67
2021/05/20 11:14:00;;;;;;;8.52;7.70;;;20.70;76.20;;;;;;5025674;28;20057;-67
2021/05/20 11:16:34;;;;;;;8.90;8.07;;;20.50;72.90;;;;;;5035520;28;20386;-67
2021/05/20 11:19:23;;;;;;;9.10;8.30;;;20.30;69.60;;;;;;5028276;28;20068;-67
2021/05/20 11:22:11;;;;;;;7.80;7.00;;;20.10;62.10;;;;;;5037271;28;20140;-68
2021/05/20 11:24:42;;;;;;;9.32;8.43;;;20.10;71.30;;;;;;5027530;28;20041;-67
2021/05/20 11:27:16;;;;;;;7.28;6.57;;;19.80;71.20;;;;;;5031827;28;20463;-67
2021/05/20 11:29:44;;;;;;;6.82;6.20;;;19.60;71.90;;;;;;5023556;28;20046;-67
2021/05/20 11:32:24;;;;;;;8.35;7.35;;;19.50;71.90;;;;;;5038186;28;20090;-66
2021/05/20 11:37:33;;;;;;;8.93;8.10;;;19.40;77.40;;;;;;5032233;28;20041;-67
2021/05/20 11:40:00;;;;;;;7.35;6.57;;;19.60;70.30;;;;;;5018480;28;20037;-66
2021/05/20 11:42:33;;;;;;;6.47;5.85;;;19.80;75.00;;;;;;5030657;28;20045;-67
2021/05/20 11:45:01;;;;;;;6.72;5.82;;;19.80;72.90;;;;;;5029024;28;20597;-66
2021/05/20 11:47:28;;;;;;;8.45;7.55;;;19.70;72.80;;;;;;5033469;28;20318;-66
2021/05/20 11:49:54;;;;;;;9.13;6.40;;;19.70;72.50;;;;;;5025781;28;20064;-65
2021/05/20 11:52:20;;;;;;;7.60;5.90;;;19.70;71.80;;;;;;5031336;28;20417;-65
2021/05/20 11:54:49;;;;;;;6.32;5.43;;;19.50;70.90;;;;;;5028937;28;20037;-65
2021/05/20 11:57:21;;;;;;;6.18;5.55;;;19.30;71.90;;;;;;5031068;28;20040;-66
2021/05/20 11:59:47;;;;;;;6.07;5.30;;;19.10;70.30;;;;;;5037495;28;20100;-66
2021/05/20 12:02:19;;;;;;;5.53;4.93;;;18.90;71.70;;;;;;5032879;28;20056;-66
2021/05/20 12:04:45;;;;;;;6.88;5.80;;;18.80;71.60;;;;;;5034896;28;20042;-66
2021/05/20 12:07:26;;;;;;;5.90;4.72;;;18.90;74.40;;;;;;5026004;28;20041;-66
2021/05/20 12:10:06;;;;;;;4.80;2.35;;;19.30;70.70;;;;;;5034891;28;20045;-66
2021/05/20 12:12:31;;;;;;;3.40;2.85;;;19.40;72.80;;;;;;5025762;28;20041;-66
2021/05/20 12:14:58;;;;;;;2.85;2.17;;;19.30;72.50;;;;;;5033817;28;20045;-66
2021/05/20 12:17:24;;;;;;;4.30;2.60;;;19.10;71.90;;;;;;5018603;28;20390;-66
2021/05/20 12:19:52;;;;;;;3.97;2.92;;;18.90;71.50;;;;;;5029000;28;20057;-66
2021/05/20 12:22:28;;;;;;;6.35;5.07;;;19.10;74.20;;;;;;5026419;28;20041;-66
2021/05/20 12:24:59;;;;;;;5.78;4.85;;;19.60;76.10;;;;;;5028729;28;20056;-66
2021/05/20 12:27:27;;;;;;;8.82;4.45;;;20.00;75.70;;;;;;5018312;28;20044;-67
2021/05/20 12:30:00;;;;;;;8.02;6.97;;;20.00;75.30;;;;;;5031887;28;20073;-67
2021/05/20 12:32:33;;;;;;;6.80;6.10;;;19.80;70.80;;;;;;5029302;28;20044;-65
2021/05/20 12:35:27;;;;;;;6.43;5.82;;;19.40;73.30;;;;;;5028900;28;20478;-66
2021/05/20 12:38:01;;;;;;;8.70;6.93;;;19.10;71.80;;;;;;5026846;28;20448;-67
2021/05/20 12:40:43;;;;;;;9.90;8.05;;;19.00;78.30;;;;;;5029208;28;20124;-64
2021/05/20 12:43:19;;;;;;;8.98;7.85;;;19.30;76.80;;;;;;5033501;28;20045;-68
2021/05/20 12:45:45;;;;;;;9.75;7.93;;;19.70;76.20;;;;;;5030419;28;20120;-66
2021/05/20 12:48:32;;;;;;;7.97;7.25;;;20.00;74.90;;;;;;5022024;28;20560;-65
2021/05/20 12:51:01;;;;;;;9.77;8.77;;;20.30;67.40;;;;;;5030443;28;20049;-66
2021/05/20 12:53:39;;;;;;;8.65;7.75;;;20.50;77.30;;;;;;5023429;28;20370;-66
2021/05/20 12:56:26;;;;;;;8.60;7.70;;;20.80;74.50;;;;;;5024076;28;20052;-66
2021/05/20 12:59:13;;;;;;;9.45;7.07;;;21.00;65.70;;;;;;5028760;28;20057;-66